Hampton, Florida
Current Conditions -  °F | °C
As of 4:53 PM on Monday 20 Oct 2014 (Local Time) from KGNV Reporting Station
Scattered Clouds Scattered Clouds  
Wind Chill: 81°   Ceiling: Unl
Heat Index: 82°   Visibility: 10mi
Dew Point: 60°   Wind: 5mph
Humidity: 49%   Direction: 100°E
Pressure: 29.96"   Gusts: NA
Location:  29.86°N, 82.13°W
Report Text: KGNV 202053Z 10004KT 10SM SCT050 27/16 A2996 RMK AO2 SLP144 T02720156 56014
Loading
Personal Weather Stations






























Interactive Weather Map New forecast layout! Learn more

10-Day Weather Forecast

Advertisements
Track Severe Weather on mobile